Time;durP1;ratioP1;P1;durP2;ratioP2;P2;SDS_P1;SDS_P2;PMS_P1;PMS_P2;Temp;Humidity;BMP_temperature;BMP_pressure;BME280_temperature;BME280_humidity;BME280_pressure;Samples;Min_cycle;Max_cycle;Signal;HPM_P1;HPM_P2
2022/12/20 00:00:58;;;;;;;24.67;9.15;;;;;;;-0.73;100.00;99454.19;4336282;33;20096;-72
2022/12/20 00:03:25;;;;;;;22.83;8.68;;;;;;;-0.31;100.00;99505.25;4337823;33;20044;-74
2022/12/20 00:05:51;;;;;;;16.73;8.75;;;;;;;-0.30;100.00;99497.13;4338880;33;20085;-73
2022/12/20 00:08:17;;;;;;;19.42;8.40;;;;;;;-0.35;100.00;99502.09;4351877;32;20065;-73
2022/12/20 00:10:44;;;;;;;23.42;8.95;;;;;;;-0.51;100.00;99499.47;4355851;32;20040;-73
2022/12/20 00:13:11;;;;;;;19.10;8.63;;;;;;;-0.35;100.00;99493.31;4352084;32;20393;-72
2022/12/20 00:15:38;;;;;;;24.00;9.82;;;;;;;-0.28;100.00;99507.56;4355447;32;20099;-73
2022/12/20 00:18:04;;;;;;;12.77;6.00;;;;;;;-0.52;100.00;99466.09;4355587;32;20098;-74
2022/12/20 00:20:31;;;;;;;23.55;9.48;;;;;;;-0.39;100.00;99504.25;4352139;32;20047;-73
2022/12/20 00:22:57;;;;;;;18.33;7.25;;;;;;;-0.35;100.00;99503.91;4309061;33;20033;-71
2022/12/20 00:25:24;;;;;;;22.73;9.75;;;;;;;-0.41;100.00;99506.25;4308880;33;20062;-73
2022/12/20 00:27:50;;;;;;;24.00;10.77;;;;;;;-0.55;100.00;99454.81;4311432;33;20078;-74
2022/12/20 00:30:17;;;;;;;22.20;9.30;;;;;;;-0.19;100.00;99498.63;4323954;33;20179;-74
2022/12/20 00:32:44;;;;;;;26.87;11.25;;;;;;;-0.33;100.00;99496.66;4323280;33;20037;-74
2022/12/20 00:35:11;;;;;;;19.77;8.70;;;;;;;-0.21;100.00;99501.44;4310611;33;20045;-73
2022/12/20 00:37:37;;;;;;;22.77;8.57;;;;;;;-0.43;100.00;99475.63;4307122;33;20176;-73
2022/12/20 00:40:05;;;;;;;23.92;9.02;;;;;;;-0.66;100.00;99435.84;4308315;33;20036;-73
2022/12/20 00:42:32;;;;;;;21.37;10.07;;;;;;;-0.33;100.00;99480.78;4307208;33;20041;-73
2022/12/20 00:44:58;;;;;;;28.15;12.60;;;;;;;-0.33;100.00;99480.78;4313325;33;20092;-72
2022/12/20 00:47:25;;;;;;;11.20;5.95;;;;;;;-0.51;100.00;99431.53;4321467;33;20176;-75
2022/12/20 00:49:51;;;;;;;21.85;9.02;;;;;;;-0.45;100.00;99473.16;4324625;33;20433;-75
2022/12/20 00:52:18;;;;;;;16.37;8.55;;;;;;;-0.63;100.00;99430.22;4322177;33;20084;-74
2022/12/20 00:54:44;;;;;;;26.90;10.68;;;;;;;-0.27;100.00;99461.56;4346492;32;20036;-74
2022/12/20 00:57:11;;;;;;;20.30;8.80;;;;;;;-0.23;100.00;99454.94;4352557;32;20052;-73
2022/12/20 00:59:37;;;;;;;33.53;11.75;;;;;;;-0.35;100.00;99437.75;4350335;32;20039;-73
2022/12/20 03:00:18;;;;;;;28.27;9.23;;;;;;;0.68;100.00;99387.28;4932980;28;20239;-71
2022/12/20 03:05:37;;;;;;;15.35;7.93;;;;;;;0.58;100.00;99349.59;4225671;33;20070;-72
2022/12/20 03:08:04;;;;;;;27.30;10.65;;;;;;;0.53;100.00;99376.63;4215838;34;20144;-73
2022/12/20 03:10:30;;;;;;;24.23;9.80;;;;;;;0.44;100.00;99366.25;4212810;34;20472;-74
2022/12/20 03:12:57;;;;;;;10.18;5.97;;;;;;;0.51;100.00;99343.34;4212505;34;20064;-74
2022/12/20 03:15:24;;;;;;;24.05;9.07;;;;;;;0.43;100.00;99351.34;4216608;34;20358;-74
2022/12/20 03:17:51;;;;;;;31.83;11.48;;;;;;;0.15;100.00;99304.22;4211026;34;20429;-74
2022/12/20 03:20:17;;;;;;;16.83;7.80;;;;;;;0.56;100.00;99341.00;4211379;34;20051;-73
2022/12/20 03:22:44;;;;;;;9.43;3.70;;;;;;;0.26;100.00;99322.34;4178594;34;20117;-74
2022/12/20 03:25:10;;;;;;;18.23;8.25;;;;;;;0.43;100.00;99348.72;4182971;34;20167;-74
2022/12/20 03:27:37;;;;;;;26.80;10.63;;;;;;;0.49;100.00;99327.63;4155859;34;20116;-73
2022/12/20 03:30:05;;;;;;;18.25;7.50;;;;;;;0.35;100.00;99278.91;4154031;34;20035;-73
2022/12/20 03:35:06;;;;;;;31.23;11.80;;;;;;;0.60;100.00;99315.78;4128706;34;20037;-74
2022/12/20 03:37:33;;;;;;;27.85;9.15;;;;;;;0.47;100.00;99286.44;4101013;34;20061;-74
2022/12/20 03:40:00;;;;;;;23.92;10.55;;;;;;;0.69;100.00;99349.19;4100224;34;20045;-75
2022/12/20 03:42:27;;;;;;;19.15;8.38;;;;;;;1.04;100.00;99346.09;4100796;35;20092;-75
2022/12/20 03:44:53;;;;;;;27.25;10.05;;;;;;;0.51;100.00;99295.66;4107458;34;20037;-74
2022/12/20 03:47:20;;;;;;;18.37;9.65;;;;;;;0.60;100.00;99318.44;4115109;34;20046;-75
2022/12/20 03:49:46;;;;;;;21.95;9.40;;;;;;;0.56;100.00;99319.81;4115274;34;20071;-75
2022/12/20 03:52:14;;;;;;;23.83;10.15;;;;;;;0.42;100.00;99316.09;4105573;34;20064;-73
2022/12/20 03:54:40;;;;;;;19.55;8.75;;;;;;;0.58;100.00;99325.75;4124039;34;20071;-74
2022/12/20 03:57:08;;;;;;;15.30;7.82;;;;;;;0.54;100.00;99327.09;4140841;34;20448;-74
2022/12/20 03:59:34;;;;;;;21.35;8.30;;;;;;;0.21;100.00;99282.31;4144651;34;20074;-74
2022/12/20 04:02:03;;;;;;;25.52;9.25;;;;;;;0.50;100.00;99323.16;4154472;34;20048;-75
2022/12/20 04:04:29;;;;;;;13.57;6.78;;;;;;;0.75;100.00;99320.31;4176365;34;20082;-74
2022/12/20 04:06:56;;;;;;;22.33;8.35;;;;;;;0.47;100.00;99320.88;4182315;34;20444;-74
2022/12/20 04:09:23;;;;;;;24.23;10.27;;;;;;;0.43;100.00;99293.06;4203816;34;20423;-74
2022/12/20 04:11:50;;;;;;;20.37;7.70;;;;;;;0.61;100.00;99306.84;4213426;34;20113;-74
2022/12/20 04:14:16;;;;;;;24.58;8.93;;;;;;;0.57;100.00;99310.84;4207796;34;20171;-73
2022/12/20 04:16:43;;;;;;;22.52;8.95;;;;;;;0.62;100.00;99321.72;4196469;34;20060;-74
2022/12/20 04:19:10;;;;;;;22.00;9.32;;;;;;;0.43;100.00;99279.81;4204910;34;20038;-74
2022/12/20 04:21:38;;;;;;;20.20;8.00;;;;;;;0.52;100.00;99307.91;4194228;34;20091;-74
2022/12/20 04:24:05;;;;;;;25.02;10.27;;;;;;;0.72;100.00;99309.06;4192180;34;20055;-74
2022/12/20 04:26:33;;;;;;;29.98;11.30;;;;;;;0.86;100.00;99317.22;4174994;34;20074;-74
2022/12/20 04:28:59;;;;;;;24.60;10.30;;;;;;;0.71;100.00;99315.37;4161010;34;20203;-74
2022/12/20 04:31:26;;;;;;;26.55;10.48;;;;;;;0.97;100.00;99322.09;4165677;34;20040;-74
2022/12/20 04:33:53;;;;;;;17.62;8.57;;;;;;;1.09;100.00;99315.34;4177383;34;20078;-74
2022/12/20 04:36:20;;;;;;;18.30;8.20;;;;;;;0.89;100.00;99324.81;4139547;34;20049;-73
2022/12/20 04:38:47;;;;;;;26.02;11.20;;;;;;;1.00;100.00;99327.03;4138714;34;20087;-74
2022/12/20 04:41:21;;;;;;;19.45;9.05;;;;;;;1.05;100.00;99324.69;4103985;34;20195;-75
2022/12/20 04:43:50;;;;;;;25.52;8.73;;;;;;;0.51;100.00;99282.41;4113739;34;20050;-74
2022/12/20 04:46:19;;;;;;;22.05;8.98;;;;;;;0.96;100.00;99331.06;4113072;34;20079;-74
2022/12/20 04:48:46;;;;;;;16.58;7.75;;;;;;;0.49;100.00;99295.00;4107431;34;20044;-74
2022/12/20 04:51:13;;;;;;;16.73;6.57;;;;;;;0.42;100.00;99288.78;4114347;34;20065;-74
2022/12/20 04:53:49;;;;;;;33.35;10.98;;;;;;;0.34;100.00;99298.44;4116552;34;20358;-74
2022/12/20 04:56:28;;;;;;;29.90;9.23;;;;;;;0.73;100.00;99333.75;4127015;34;20049;-75
2022/12/20 04:58:57;;;;;;;24.55;9.02;;;;;;;0.96;100.00;99339.03;4139580;34;20522;-74
2022/12/20 05:01:25;;;;;;;22.95;9.35;;;;;;;0.66;100.00;99332.81;4126855;34;20086;-74
2022/12/20 05:03:51;;;;;;;25.12;10.07;;;;;;;0.72;100.00;99322.31;4127644;34;20041;-74
2022/12/20 05:06:18;;;;;;;22.87;9.05;;;;;;;0.82;100.00;99345.13;4128380;34;20108;-75
2022/12/20 05:08:46;;;;;;;37.97;13.05;;;;;;;0.85;100.00;99331.50;4160696;34;20036;-73
2022/12/20 05:13:46;;;;;;;30.88;9.98;;;;;;;0.89;100.00;99332.78;4209066;34;20035;-74
2022/12/20 05:16:15;;;;;;;27.55;11.15;;;;;;;0.83;100.00;99338.78;4204083;34;20052;-74
2022/12/20 05:18:42;;;;;;;20.45;6.97;;;;;;;0.91;100.00;99330.78;4193884;34;20343;-74
2022/12/20 05:26:41;;;;;;;33.08;12.00;;;;;;;0.70;100.00;99350.00;4220689;34;20067;-73
2022/12/20 05:29:08;;;;;;;31.37;12.32;;;;;;;0.86;100.00;99359.66;4222501;34;20097;-74
2022/12/20 05:31:35;;;;;;;24.20;12.32;;;;;;;0.35;100.00;99296.59;4214935;34;20065;-74
2022/12/20 05:34:02;;;;;;;17.25;8.05;;;;;;;0.70;100.00;99345.53;4223947;33;20039;-74
2022/12/20 05:36:29;;;;;;;31.35;13.57;;;;;;;0.32;100.00;99315.50;4208072;34;20046;-74
2022/12/20 05:38:55;;;;;;;26.42;10.07;;;;;;;0.49;100.00;99310.91;4208184;34;20553;-74
2022/12/20 05:41:22;;;;;;;17.60;8.35;;;;;;;0.46;100.00;99311.25;4210922;34;20146;-74
2022/12/20 05:43:49;;;;;;;24.40;9.10;;;;;;;0.56;100.00;99319.81;4212133;34;20061;-74
2022/12/20 05:46:16;;;;;;;29.23;11.12;;;;;;;0.67;100.00;99308.78;4212751;34;20038;-74
2022/12/20 05:48:45;;;;;;;25.58;7.87;;;;;;;0.61;100.00;99320.09;4211933;34;20056;-73
2022/12/20 05:51:13;;;;;;;22.58;9.70;;;;;;;0.69;100.00;99309.44;4210746;34;20050;-74
2022/12/20 05:53:39;;;;;;;18.65;7.35;;;;;;;0.66;100.00;99328.34;4184218;34;20029;-74
2022/12/20 05:56:06;;;;;;;24.77;8.80;;;;;;;0.35;100.00;99278.91;4183421;34;20103;-74
2022/12/20 05:58:33;;;;;;;28.08;10.95;;;;;;;0.58;100.00;99304.56;4183097;34;20345;-74
2022/12/20 06:01:07;;;;;;;21.35;8.45;;;;;;;0.64;100.00;99308.31;4181445;34;20047;-73
2022/12/20 06:03:34;;;;;;;31.35;12.30;;;;;;;0.62;100.00;99316.44;4182870;34;20047;-74
2022/12/20 06:06:02;;;;;;;25.27;11.60;;;;;;;0.65;100.00;99331.16;4184633;34;20069;-74
2022/12/20 06:08:29;;;;;;;25.55;10.07;;;;;;;0.91;100.00;99317.53;4195104;34;20039;-74
2022/12/20 06:10:56;;;;;;;23.67;10.73;;;;;;;0.32;100.00;99279.25;4195956;34;20212;-72
2022/12/20 06:13:23;;;;;;;27.60;10.18;;;;;;;0.67;100.00;99308.78;4196386;34;20043;-74
2022/12/20 06:15:50;;;;;;;22.92;8.02;;;;;;;0.65;100.00;99315.25;4197990;34;20332;-74
2022/12/20 06:18:18;;;;;;;25.48;10.20;;;;;;;0.42;100.00;99312.63;4196925;34;20096;-74
2022/12/20 06:20:50;;;;;;;31.77;11.88;;;;;;;0.61;100.00;99314.00;4197998;34;20423;-74
2022/12/20 06:23:17;;;;;;;27.80;11.25;;;;;;;0.18;100.00;99257.00;4195925;34;20081;-72
2022/12/20 06:25:45;;;;;;;26.52;10.27;;;;;;;0.20;100.00;99275.38;4225637;33;20047;-73
2022/12/20 06:28:12;;;;;;;23.75;10.80;;;;;;;0.56;100.00;99317.16;4227817;33;20051;-73
2022/12/20 06:30:38;;;;;;;23.87;10.55;;;;;;;0.41;100.00;99318.94;4227086;33;20451;-73
2022/12/20 06:33:05;;;;;;;29.02;11.40;;;;;;;0.44;100.00;99318.56;4226813;33;20069;-73
2022/12/20 06:35:31;;;;;;;25.15;10.52;;;;;;;0.13;100.00;99279.72;4226938;33;20414;-73
2022/12/20 06:37:58;;;;;;;22.65;9.00;;;;;;;0.16;100.00;99279.34;4226661;33;20141;-74
2022/12/20 06:40:25;;;;;;;22.80;8.50;;;;;;;0.34;100.00;99330.22;4227198;33;20054;-72
2022/12/20 06:42:51;;;;;;;21.17;10.63;;;;;;;0.36;100.00;99319.47;4227814;33;20337;-73
2022/12/20 06:45:18;;;;;;;28.80;10.57;;;;;;;0.40;100.00;99304.03;4198093;34;20507;-73
2022/12/20 06:47:45;;;;;;;35.80;11.43;;;;;;;0.45;100.00;99333.47;4193959;34;20069;-73
2022/12/20 06:50:12;;;;;;;29.23;10.60;;;;;;;0.60;100.00;99323.75;4197561;34;20936;-73
2022/12/20 06:52:38;;;;;;;31.55;11.63;;;;;;;0.43;100.00;99295.72;4196937;34;20108;-73
2022/12/20 06:55:06;;;;;;;20.67;9.73;;;;;;;0.50;100.00;99323.16;4197673;34;20159;-74
2022/12/20 06:57:34;;;;;;;21.45;9.95;;;;;;;0.49;100.00;99337.41;4208858;34;20048;-74
2022/12/20 07:00:01;;;;;;;28.55;9.88;;;;;;;0.10;100.00;99301.25;4208909;34;20053;-72
2022/12/20 07:02:27;;;;;;;20.48;8.20;;;;;;;0.43;100.00;99330.16;4210389;34;20055;-74
2022/12/20 07:04:54;;;;;;;21.35;9.23;;;;;;;0.30;100.00;99322.81;4202385;34;20451;-74
2022/12/20 07:07:20;;;;;;;28.95;10.80;;;;;;;0.31;100.00;99319.97;4166802;34;20044;-73
2022/12/20 07:09:47;;;;;;;27.73;10.05;;;;;;;0.36;100.00;99322.91;4166147;34;20063;-73
2022/12/20 07:12:13;;;;;;;29.08;11.40;;;;;;;0.40;100.00;99325.22;4165393;34;20069;-73
2022/12/20 07:14:40;;;;;;;22.10;9.07;;;;;;;0.44;100.00;99318.56;4167661;34;20155;-73
2022/12/20 07:17:07;;;;;;;29.17;10.30;;;;;;;0.11;100.00;99310.84;4178478;34;20500;-73
2022/12/20 07:19:35;;;;;;;33.00;11.18;;;;;;;0.27;100.00;99334.59;4180553;34;20669;-73
2022/12/20 07:22:02;;;;;;;32.58;11.68;;;;;;;0.43;100.00;99332.81;4181095;34;20036;-71
2022/12/20 07:24:29;;;;;;;26.75;9.98;;;;;;;0.50;100.00;99328.47;4181714;34;20091;-73
2022/12/20 07:26:55;;;;;;;25.90;10.02;;;;;;;0.32;100.00;99326.94;4183225;34;20061;-73
2022/12/20 07:29:21;;;;;;;13.40;7.70;;;;;;;0.20;100.00;99333.62;4183191;34;20036;-73
2022/12/20 07:31:48;;;;;;;18.25;7.90;;;;;;;0.25;100.00;99341.88;4181367;34;20167;-72
2022/12/20 07:34:14;;;;;;;36.00;13.20;;;;;;;0.29;100.00;99331.78;4180899;34;20511;-72
2022/12/20 07:36:41;;;;;;;24.45;11.45;;;;;;;0.41;100.00;99308.34;4186497;34;20058;-73
2022/12/20 07:39:08;;;;;;;39.22;15.75;;;;;;;0.53;100.00;99336.06;4199212;34;20381;-72
2022/12/20 07:41:34;;;;;;;26.20;11.68;;;;;;;0.06;100.00;99290.19;4178139;34;20062;-72
2022/12/20 07:44:02;;;;;;;34.33;12.45;;;;;;;0.40;100.00;99325.22;4165505;34;20066;-72
2022/12/20 07:46:29;;;;;;;35.78;14.05;;;;;;;0.57;100.00;99329.41;4168575;34;20070;-72
2022/12/20 07:48:55;;;;;;;25.00;10.55;;;;;;;0.45;100.00;99341.44;4167780;34;20450;-72
2022/12/20 07:51:22;;;;;;;31.83;10.88;;;;;;;0.48;100.00;99327.81;4169140;34;20044;-72
2022/12/20 07:54:15;;;;;;;20.25;8.88;;;;;;;0.25;100.00;99299.50;4166915;34;20056;-71
2022/12/20 07:56:43;;;;;;;;;;;;;;;0.52;100.00;99318.50;4167850;34;20054;-72
2022/12/20 07:59:14;;;;;;;30.10;12.82;;;;;;;0.75;100.00;99325.63;4167904;34;19982;-71
2022/12/20 08:01:43;;;;;;;28.50;10.95;;;;;;;0.44;100.00;99286.78;4165726;34;20065;-71
2022/12/20 08:04:18;;;;;;;37.42;13.95;;;;;;;0.64;100.00;99303.00;4167625;34;20058;-72
2022/12/20 08:06:45;;;;;;;30.23;10.70;;;;;;;0.57;100.00;99276.41;4167571;34;20058;-72
2022/12/20 08:09:13;;;;;;;32.20;11.77;;;;;;;0.57;100.00;99307.37;4167786;34;20147;-75
2022/12/20 08:11:43;;;;;;;27.90;12.57;;;;;;;0.68;100.00;99321.03;4162058;34;20055;-73
2022/12/20 08:14:10;;;;;;;29.63;11.70;;;;;;;0.35;100.00;99284.19;4175082;34;20410;-74
2022/12/20 08:16:37;;;;;;;27.73;11.80;;;;;;;0.81;100.00;99322.25;4189075;34;20378;-74
2022/12/20 08:19:03;;;;;;;29.40;13.48;;;;;;;0.71;100.00;99280.91;4195180;34;20058;-74
2022/12/20 08:21:29;;;;;;;20.20;9.48;;;;;;;0.60;100.00;99307.84;4196052;34;20065;-74
2022/12/20 08:23:56;;;;;;;30.40;11.55;;;;;;;0.78;100.00;99301.41;4195493;34;20048;-74
2022/12/20 08:26:23;;;;;;;28.40;10.32;;;;;;;0.83;100.00;99281.31;4196357;34;20043;-74
2022/12/20 08:28:50;;;;;;;35.88;12.40;;;;;;;0.65;100.00;99268.38;4192494;34;20297;-74
2022/12/20 08:31:17;;;;;;;26.55;11.32;;;;;;;0.99;100.00;99317.47;4190306;34;20056;-75
2022/12/20 08:33:43;;;;;;;29.40;13.10;;;;;;;0.56;100.00;99297.78;4194076;34;20100;-75
2022/12/20 08:36:11;;;;;;;33.38;13.73;;;;;;;0.84;100.00;99309.44;4189619;34;20057;-75
2022/12/20 08:38:39;;;;;;;29.52;10.85;;;;;;;1.08;100.00;99299.63;4155866;34;20033;-75
2022/12/20 08:41:10;;;;;;;20.30;10.20;;;;;;;0.70;100.00;99297.84;4164533;34;20032;-76
2022/12/20 08:43:38;;;;;;;27.50;12.37;;;;;;;0.76;100.00;99282.22;4172601;34;20070;-75
2022/12/20 08:46:05;;;;;;;25.33;11.60;;;;;;;0.95;100.00;99308.19;4172902;34;20043;-76
2022/12/20 08:48:33;;;;;;;32.10;12.80;;;;;;;0.94;100.00;99309.19;4174497;34;20048;-75
2022/12/20 08:51:02;;;;;;;28.02;11.55;;;;;;;0.94;100.00;99282.69;4168925;34;20087;-75
2022/12/20 08:53:29;;;;;;;25.42;12.07;;;;;;;1.18;100.00;99318.75;4164711;34;20134;-76
2022/12/20 08:56:13;;;;;;;23.38;9.02;;;;;;;0.85;100.00;99294.38;4140730;34;20082;-75
2022/12/20 08:58:42;;;;;;;26.05;11.68;;;;;;;1.27;100.00;99309.69;4141578;34;20041;-75
2022/12/20 09:01:12;;;;;;;28.70;11.20;;;;;;;0.87;100.00;99265.88;4111168;34;20038;-75
2022/12/20 09:03:39;;;;;;;32.17;13.23;;;;;;;1.31;100.00;99299.56;4141549;34;20085;-74
2022/12/20 09:06:11;;;;;;;23.05;8.95;;;;;;;1.50;100.00;99302.66;4133225;34;20049;-74
2022/12/20 09:08:39;;;;;;;33.78;13.48;;;;;;;1.26;100.00;99254.16;4125805;34;20066;-74
2022/12/20 09:11:08;;;;;;;37.85;11.73;;;;;;;1.46;100.00;99254.44;4124797;34;20037;-74
2022/12/20 09:13:35;;;;;;;26.20;12.20;;;;;;;1.30;100.00;99239.53;4127746;34;20079;-74
2022/12/20 09:16:03;;;;;;;30.23;12.80;;;;;;;1.71;100.00;99289.44;4131557;34;20163;-74
2022/12/20 09:18:30;;;;;;;29.80;12.23;;;;;;;1.43;100.00;99245.00;4164098;34;20040;-74
2022/12/20 09:21:00;;;;;;;25.20;11.32;;;;;;;1.48;100.00;99278.94;4166050;34;20349;-76
2022/12/20 09:23:31;;;;;;;37.30;12.98;;;;;;;1.44;100.00;99289.09;4167574;34;20415;-74
2022/12/20 09:26:07;;;;;;;32.55;12.75;;;;;;;1.41;100.00;99284.16;4169069;34;20066;-74
2022/12/20 09:28:34;;;;;;;24.67;11.52;;;;;;;1.51;100.00;99251.22;4188184;34;20350;-74
2022/12/20 09:31:03;;;;;;;34.72;13.95;;;;;;;1.22;100.00;99252.91;4193781;34;20043;-74
2022/12/20 09:33:31;;;;;;;26.90;12.02;;;;;;;1.37;100.00;99251.06;4194965;34;20055;-74
2022/12/20 09:35:58;;;;;;;30.20;11.15;;;;;;;1.43;100.00;99274.19;4210969;34;20051;-75
2022/12/20 09:38:27;;;;;;;31.15;13.52;;;;;;;1.48;100.00;99272.81;4195129;34;20051;-75
2022/12/20 09:40:57;;;;;;;27.92;10.68;;;;;;;1.47;100.00;99261.41;4196072;34;20048;-75
2022/12/20 09:43:24;;;;;;;32.20;10.52;;;;;;;1.57;100.00;99292.94;4194461;34;20039;-75
2022/12/20 09:46:01;;;;;;;22.37;8.88;;;;;;;1.57;100.00;99300.91;4194999;34;20295;-75
2022/12/20 09:48:33;;;;;;;29.33;8.98;;;;;;;1.77;100.00;99309.09;4195533;34;20057;-74
2022/12/20 09:51:08;;;;;;;32.80;13.18;;;;;;;1.83;100.00;99294.28;4194710;34;20160;-75
2022/12/20 09:53:44;;;;;;;35.08;12.25;;;;;;;1.75;100.00;99252.72;4195041;34;20052;-75
2022/12/20 09:56:26;;;;;;;35.60;13.35;;;;;;;1.91;100.00;99302.94;4195734;34;20040;-75
2022/12/20 09:59:17;;;;;;;44.08;13.73;;;;;;;2.00;100.00;99303.69;4192067;34;20047;-75
2022/12/20 10:01:46;;;;;;;29.37;11.75;;;;;;;2.16;100.00;99314.06;4194879;34;20036;-77
2022/12/20 10:04:22;;;;;;;31.42;11.80;;;;;;;1.85;100.00;99321.47;4195463;34;20061;-74
2022/12/20 10:06:57;;;;;;;36.53;13.48;;;;;;;2.12;100.00;99322.59;4195387;34;20383;-75
2022/12/20 10:09:46;;;;;;;38.08;15.35;;;;;;;1.93;100.00;99313.38;4202421;34;20035;-75
2022/12/20 10:12:15;;;;;;;23.02;10.95;;;;;;;2.11;100.00;99316.47;4211514;34;20294;-74
2022/12/20 10:15:16;;;;;;;33.45;13.13;;;;;;;1.81;100.00;99268.72;4195782;34;20047;-74
2022/12/20 10:18:10;;;;;;;28.15;11.57;;;;;;;1.94;100.00;99269.91;4205220;34;20085;-74
2022/12/20 10:20:43;;;;;;;35.33;11.52;;;;;;;1.91;100.00;99288.84;4209737;34;20105;-74
2022/12/20 10:23:22;;;;;;;27.23;12.05;;;;;;;1.63;100.00;99263.00;4207583;34;20100;-74
2022/12/20 10:25:51;;;;;;;32.25;13.57;;;;;;;1.63;100.00;99265.69;4211556;34;20104;-74
2022/12/20 10:28:23;;;;;;;34.47;14.18;;;;;;;1.75;100.00;99266.00;4211833;34;20098;-74
2022/12/20 10:30:50;;;;;;;30.23;13.27;;;;;;;1.76;100.00;99249.06;4210243;34;20044;-75
2022/12/20 10:33:21;;;;;;;33.42;13.85;;;;;;;2.02;100.00;99290.22;4210747;34;20196;-74
2022/12/20 10:35:49;;;;;;;29.40;13.82;;;;;;;1.81;100.00;99239.53;4212141;34;20064;-74
2022/12/20 10:38:19;;;;;;;24.23;11.00;;;;;;;1.88;100.00;99252.06;4211414;34;20409;-75
2022/12/20 10:41:01;;;;;;;35.67;14.55;;;;;;;1.88;100.00;99266.12;4210004;34;20374;-75
2022/12/20 10:43:41;;;;;;;36.03;13.88;;;;;;;2.06;100.00;99260.44;4198117;34;20039;-74
2022/12/20 10:46:09;;;;;;;33.17;13.62;;;;;;;2.05;100.00;99215.47;4196780;34;20069;-74
2022/12/20 10:48:41;;;;;;;29.58;13.23;;;;;;;1.99;100.00;99262.19;4197914;34;20058;-74
2022/12/20 10:51:07;;;;;;;25.12;11.23;;;;;;;2.08;100.00;99261.06;4197889;34;20118;-74
2022/12/20 10:53:35;;;;;;;32.50;14.00;;;;;;;1.91;100.00;99241.88;4181809;34;20050;-75
2022/12/20 10:56:18;;;;;;;38.33;14.30;;;;;;;2.08;100.00;99249.62;4182061;34;20105;-76
2022/12/20 10:58:51;;;;;;;;;;;;;;;2.15;100.00;99248.69;4184499;34;20066;-73
2022/12/20 11:01:20;;;;;;;16.52;8.65;;;;;;;2.35;100.00;99237.41;4184205;34;20006;-75
2022/12/20 11:03:52;;;;;;;41.40;14.87;;;;;;;1.76;100.00;99202.09;4180714;34;20032;-74
2022/12/20 11:06:22;;;;;;;22.98;11.02;;;;;;;2.17;100.00;99229.84;4183579;34;20374;-74
2022/12/20 11:08:49;;;;;;;20.55;10.50;;;;;;;1.68;100.00;99186.28;4171109;34;20199;-74
2022/12/20 11:11:17;;;;;;;31.27;12.35;;;;;;;1.67;100.00;99213.03;4183904;34;20051;-74
2022/12/20 11:13:46;;;;;;;25.90;11.50;;;;;;;2.10;100.00;99208.56;4181890;34;20044;-75
2022/12/20 11:16:33;;;;;;;32.10;12.45;;;;;;;2.07;100.00;99203.63;4179059;34;20444;-74
2022/12/20 11:19:15;;;;;;;30.23;11.77;;;;;;;2.35;100.00;99200.19;4171115;34;20482;-74
2022/12/20 11:21:54;;;;;;;29.15;11.25;;;;;;;2.11;100.00;99204.09;4173025;34;20048;-75
2022/12/20 11:24:20;;;;;;;30.70;12.98;;;;;;;2.16;100.00;99202.47;4182583;34;20067;-74
2022/12/20 11:27:08;;;;;;;38.10;14.25;;;;;;;2.03;100.00;99143.94;4197416;34;20044;-74
2022/12/20 11:29:47;;;;;;;33.38;12.57;;;;;;;2.29;100.00;99174.38;4196061;34;20391;-74
2022/12/20 11:32:31;;;;;;;31.35;12.77;;;;;;;2.47;100.00;99174.75;4196554;34;20047;-73
2022/12/20 11:35:06;;;;;;;34.72;14.38;;;;;;;2.10;100.00;99131.53;4196531;34;20048;-74
2022/12/20 11:37:44;;;;;;;25.20;12.18;;;;;;;2.45;100.00;99171.44;4196360;34;20032;-75
2022/12/20 11:40:29;;;;;;;33.83;12.82;;;;;;;2.54;100.00;99198.72;4196741;34;20356;-74
2022/12/20 11:42:59;;;;;;;34.55;13.35;;;;;;;2.53;100.00;99189.91;4196975;34;20068;-74
2022/12/20 11:45:52;;;;;;;22.05;10.63;;;;;;;2.37;100.00;99171.59;4196754;34;20150;-74
2022/12/20 11:49:01;;;;;;;41.72;15.63;;;;;;;2.77;100.00;99197.62;4197322;34;20047;-74
2022/12/20 11:51:39;;;;;;;27.55;13.15;;;;;;;2.81;100.00;99167.81;4196314;34;20028;-74
2022/12/20 11:54:24;;;;;;;39.80;13.30;;;;;;;2.86;100.00;99191.16;4196408;34;20055;-73
2022/12/20 11:56:58;;;;;;;28.40;11.85;;;;;;;2.88;100.00;99158.00;4196092;34;20043;-74
2022/12/20 11:59:37;;;;;;;32.08;13.18;;;;;;;2.44;100.00;99140.56;4207974;34;20047;-74
2022/12/20 12:02:31;;;;;;;26.35;11.25;;;;;;;2.53;100.00;99154.53;4372516;28;20047;-74
2022/12/20 12:05:15;;;;;;;26.90;12.02;;;;;;;2.65;100.00;99205.31;4227223;34;20072;-75
2022/12/20 12:07:46;;;;;;;33.25;13.32;;;;;;;2.77;100.00;99184.34;4224889;34;20051;-76
2022/12/20 12:10:17;;;;;;;26.50;11.10;;;;;;;2.70;100.00;99192.28;4226956;34;20075;-74
2022/12/20 12:12:46;;;;;;;38.47;13.35;;;;;;;2.35;100.00;99152.38;4226355;33;20430;-74
2022/12/20 12:15:37;;;;;;;39.65;16.17;;;;;;;2.64;100.00;99185.06;4226913;34;20050;-74
2022/12/20 12:18:11;;;;;;;22.20;9.82;;;;;;;2.84;100.00;99199.31;4224406;34;20034;-74
2022/12/20 12:20:49;;;;;;;28.62;12.27;;;;;;;2.70;100.00;99197.59;4225088;34;20039;-74
2022/12/20 12:23:38;;;;;;;40.67;14.98;;;;;;;2.48;100.00;99184.34;4224223;34;20310;-74
2022/12/20 12:26:20;;;;;;;21.00;9.43;;;;;;;2.47;100.00;99161.47;4213161;34;20043;-74
2022/12/20 12:28:53;;;;;;;24.30;10.40;;;;;;;2.30;100.00;99197.31;4223551;34;20051;-73
2022/12/20 12:31:28;;;;;;;27.67;10.48;;;;;;;2.05;100.00;99172.97;4182767;34;20110;-74
2022/12/20 12:34:21;;;;;;;24.23;12.07;;;;;;;2.39;100.00;99212.06;4181719;34;20403;-75
2022/12/20 12:36:56;;;;;;;21.12;8.63;;;;;;;1.69;100.00;99137.50;4181588;34;20069;-74
2022/12/20 12:39:42;;;;;;;21.08;7.30;;;;;;;2.04;100.00;99171.31;4181281;34;20040;-75
2022/12/20 12:42:30;;;;;;;32.28;12.43;;;;;;;2.33;100.00;99215.50;4182279;34;20054;-74
2022/12/20 12:45:04;;;;;;;38.38;14.65;;;;;;;2.60;100.00;99208.56;4182453;34;20054;-74
2022/12/20 12:47:46;;;;;;;40.22;14.43;;;;;;;2.29;100.00;99200.97;4181863;34;20063;-73
2022/12/20 12:50:30;;;;;;;42.58;16.12;;;;;;;2.40;100.00;99200.44;4182698;34;20040;-72
2022/12/20 12:53:07;;;;;;;22.15;10.45;;;;;;;2.41;100.00;99194.13;4185154;34;20043;-73
2022/12/20 12:55:38;;;;;;;30.83;13.05;;;;;;;2.09;100.00;99206.09;4194481;34;20039;-73
2022/12/20 12:58:22;;;;;;;44.88;13.48;;;;;;;2.21;100.00;99182.50;4196028;34;20039;-73
2022/12/20 13:00:54;;;;;;;30.37;11.20;;;;;;;2.31;100.00;99182.97;4196349;34;20077;-73
2022/12/20 13:03:39;;;;;;;;;;;;;;;2.33;100.00;99173.81;4235120;33;20073;-74
2022/12/20 13:06:29;;;;;;;30.80;11.30;;;;;;;2.34;100.00;99171.97;4240934;33;20305;-74
2022/12/20 13:08:59;;;;;;;26.23;11.75;;;;;;;2.28;100.00;99143.50;4241404;33;20038;-75
2022/12/20 13:11:35;;;;;;;43.25;15.95;;;;;;;2.14;100.00;99135.44;4209497;34;20038;-75
2022/12/20 13:14:24;;;;;;;40.60;11.48;;;;;;;2.45;100.00;99160.81;4209847;34;20047;-75
2022/12/20 13:16:59;;;;;;;23.42;10.15;;;;;;;2.50;100.00;99155.72;4223154;33;20035;-76
2022/12/20 13:19:26;;;;;;;38.83;14.45;;;;;;;2.43;100.00;99146.91;4223364;33;20047;-75
2022/12/20 13:21:57;;;;;;;37.20;15.80;;;;;;;2.38;100.00;99157.28;4223606;33;20060;-75
2022/12/20 13:24:35;;;;;;;34.72;13.13;;;;;;;2.21;100.00;99121.41;4222970;33;20089;-75
2022/12/20 13:27:13;;;;;;;19.60;7.95;;;;;;;2.40;100.00;99171.19;4207928;34;20050;-74
2022/12/20 13:29:53;;;;;;;33.08;14.10;;;;;;;2.07;100.00;99166.44;4223593;34;20076;-74
2022/12/20 13:32:47;;;;;;;36.95;15.30;;;;;;;2.44;100.00;99161.00;4222921;34;20068;-75
2022/12/20 13:35:26;;;;;;;36.35;15.43;;;;;;;2.34;100.00;99150.72;4215671;33;20150;-75
2022/12/20 13:37:55;;;;;;;33.50;13.90;;;;;;;2.44;100.00;99145.91;4179517;34;20193;-75
2022/12/20 13:40:30;;;;;;;40.47;15.13;;;;;;;1.88;100.00;99113.97;4181806;34;20048;-74
2022/12/20 13:42:58;;;;;;;41.42;15.80;;;;;;;2.27;100.00;99158.62;4191093;34;20087;-74
2022/12/20 13:45:25;;;;;;;48.85;17.08;;;;;;;2.05;100.00;99114.53;4194190;34;20180;-75
2022/12/20 13:47:57;;;;;;;45.97;17.12;;;;;;;2.36;100.00;99159.31;4197846;34;20056;-74